Time;durP1;ratioP1;P1;durP2;ratioP2;P2;SDS_P1;SDS_P2;PMS_P1;PMS_P2;Temp;Humidity;BMP_temperature;BMP_pressure;BME280_temperature;BME280_humidity;BME280_pressure;Samples;Min_cycle;Max_cycle;Signal;HPM_P1;HPM_P2
2022/12/12 00:00:16;;;;;;;0.00;0.00;;;;;;;16.47;51.92;101266.06;2047738;28;20047;-73
2022/12/12 00:01:23;;;;;;;0.00;0.00;;;;;;;16.46;51.94;101257.09;2049475;28;20218;-73
2022/12/12 00:02:26;;;;;;;0.00;0.00;;;;;;;16.44;52.10;101264.84;2049994;28;20051;-73
2022/12/12 00:03:28;;;;;;;0.00;0.00;;;;;;;16.44;51.93;101267.59;2050798;28;20161;-73
2022/12/12 00:04:31;;;;;;;0.00;0.00;;;;;;;16.36;52.36;101253.06;2057448;28;20137;-74
2022/12/12 00:05:33;;;;;;;0.00;0.00;;;;;;;16.44;51.89;101262.94;2050578;28;20085;-74
2022/12/12 00:06:37;;;;;;;0.00;0.00;;;;;;;16.46;51.88;101264.50;2049003;28;20054;-73
2022/12/12 00:07:39;;;;;;;0.00;0.00;;;;;;;16.44;51.96;101262.13;2050203;28;20059;-75
2022/12/12 00:08:42;;;;;;;0.00;0.00;;;;;;;16.42;52.00;101267.16;2040622;28;20138;-75
2022/12/12 00:09:44;;;;;;;0.00;0.00;;;;;;;16.43;52.02;101261.34;2048967;28;20084;-75
2022/12/12 00:10:47;;;;;;;0.00;0.00;;;;;;;16.44;51.98;101273.03;2049731;28;20050;-75
2022/12/12 00:11:49;;;;;;;0.00;0.00;;;;;;;16.43;51.95;101269.50;2049648;28;20065;-75
2022/12/12 00:12:51;;;;;;;0.00;0.00;;;;;;;16.43;51.91;101269.50;2041892;28;20058;-75
2022/12/12 00:13:54;;;;;;;0.00;0.00;;;;;;;16.43;52.03;101261.34;2040044;28;20443;-75
2022/12/12 00:14:57;;;;;;;0.00;0.00;;;;;;;16.44;51.91;101270.31;2050698;28;20050;-75
2022/12/12 00:15:59;;;;;;;0.00;0.00;;;;;;;16.42;52.10;101273.41;2049706;28;20134;-75
2022/12/12 00:17:02;;;;;;;0.00;0.00;;;;;;;16.43;51.84;101277.69;2048684;28;20059;-74
2022/12/12 00:18:04;;;;;;;0.00;0.00;;;;;;;16.42;51.91;101276.13;2048914;28;20058;-73
2022/12/12 00:19:06;;;;;;;0.00;0.00;;;;;;;16.43;51.99;101277.69;2052336;28;20058;-74
2022/12/12 00:20:09;;;;;;;0.00;0.00;;;;;;;16.42;51.93;101276.13;2043895;28;20071;-74
2022/12/12 00:21:15;;;;;;;0.00;0.00;;;;;;;16.44;51.95;101270.31;2043695;28;20059;-74
2022/12/12 00:22:20;;;;;;;0.00;0.00;;;;;;;16.42;52.00;101273.41;2051180;28;20562;-75
2022/12/12 00:23:22;;;;;;;0.00;0.00;;;;;;;16.42;51.90;101270.69;2051446;28;20055;-74
2022/12/12 00:24:25;;;;;;;0.00;0.00;;;;;;;16.41;51.95;101271.06;2049829;28;20066;-74
2022/12/12 00:25:27;;;;;;;0.00;0.00;;;;;;;16.40;52.01;101267.53;2049721;28;20059;-73
2022/12/12 00:26:32;;;;;;;0.00;0.00;;;;;;;16.41;51.95;101269.09;2041474;28;20511;-74
2022/12/12 00:27:34;;;;;;;0.00;0.00;;;;;;;16.39;52.11;101271.38;2042985;28;20483;-74
2022/12/12 00:28:37;;;;;;;0.00;0.00;;;;;;;16.40;51.95;101269.47;2049609;28;20140;-73
2022/12/12 00:29:39;;;;;;;0.00;0.00;;;;;;;16.39;52.09;101273.34;2051368;28;20945;-74
2022/12/12 00:30:42;;;;;;;0.00;0.00;;;;;;;16.38;51.93;101275.28;2043505;28;20059;-74
2022/12/12 00:31:45;;;;;;;0.00;0.00;;;;;;;16.40;52.08;101275.69;2049806;28;20518;-74
2022/12/12 00:32:46;;;;;;;0.00;0.00;;;;;;;16.39;52.04;101274.13;2058085;28;20833;-73
2022/12/12 00:33:50;;;;;;;0.00;0.00;;;;;;;16.40;52.17;101274.91;2050406;28;20550;-73
2022/12/12 00:34:52;;;;;;;0.00;0.00;;;;;;;16.39;51.87;101276.84;2041234;28;20054;-74
2022/12/12 00:35:55;;;;;;;0.00;0.00;;;;;;;16.39;51.91;101273.34;2041540;28;20056;-74
2022/12/12 00:36:58;;;;;;;0.00;0.00;;;;;;;16.37;52.10;101279.16;2049939;28;20509;-74
2022/12/12 00:38:01;;;;;;;0.00;0.00;;;;;;;16.39;52.03;101273.34;2050235;28;20051;-74
2022/12/12 00:39:05;;;;;;;0.00;0.00;;;;;;;16.38;52.05;101283.44;2052176;28;20051;-74
2022/12/12 00:40:09;;;;;;;0.00;0.00;;;;;;;16.38;51.98;101275.28;2052032;28;20051;-74
2022/12/12 00:41:12;;;;;;;0.00;0.00;;;;;;;16.37;52.10;101273.72;2047568;28;20054;-74
2022/12/12 00:42:14;;;;;;;0.00;0.00;;;;;;;16.38;52.16;101274.47;2049993;28;20054;-74
2022/12/12 00:43:16;;;;;;;0.00;0.00;;;;;;;16.38;51.98;101279.94;2050836;28;20058;-74
2022/12/12 00:44:18;;;;;;;0.00;0.00;;;;;;;16.33;52.10;101272.88;2053818;28;20129;-73
2022/12/12 00:45:21;;;;;;;0.00;0.00;;;;;;;16.38;52.14;101278.00;2052736;28;20051;-75
2022/12/12 00:46:24;;;;;;;0.00;0.00;;;;;;;16.34;52.35;101269.00;2050978;28;20047;-74
2022/12/12 00:47:27;;;;;;;0.00;0.00;;;;;;;16.36;51.99;101274.84;2050664;28;20193;-74
2022/12/12 00:48:30;;;;;;;0.00;0.00;;;;;;;16.36;52.01;101272.13;2044010;28;20074;-74
2022/12/12 00:49:32;;;;;;;0.00;0.00;;;;;;;16.36;52.09;101277.56;2042323;28;20534;-74
2022/12/12 00:50:34;;;;;;;0.00;0.00;;;;;;;16.37;52.09;101281.91;2043401;28;20407;-74
2022/12/12 00:51:37;;;;;;;0.00;0.00;;;;;;;16.36;52.13;101276.81;2043836;28;20136;-72
2022/12/12 00:52:42;;;;;;;0.00;0.00;;;;;;;16.35;51.96;101276.03;2052888;28;20054;-74
2022/12/12 00:53:47;;;;;;;0.00;0.00;;;;;;;16.34;52.03;101274.47;2051838;28;20651;-75
2022/12/12 00:54:49;;;;;;;0.00;0.00;;;;;;;16.35;52.05;101276.03;2051507;28;20063;-74
2022/12/12 00:55:56;;;;;;;0.00;0.00;;;;;;;16.36;52.05;101271.38;2059352;28;20410;-74
2022/12/12 00:56:58;;;;;;;0.00;0.00;;;;;;;16.35;52.04;101276.03;2058030;28;20443;-74
2022/12/12 00:58:01;;;;;;;0.00;0.00;;;;;;;16.35;52.12;101281.47;2049919;28;20062;-74
2022/12/12 00:59:03;;;;;;;0.00;0.00;;;;;;;16.35;51.75;101276.03;2049233;28;20519;-74
2022/12/12 01:00:08;;;;;;;0.00;0.00;;;;;;;16.35;52.12;101276.03;2050975;28;20093;-74
2022/12/12 01:01:12;;;;;;;0.00;0.00;;;;;;;16.35;52.06;101275.22;2040619;28;20055;-75
2022/12/12 01:02:15;;;;;;;0.00;0.00;;;;;;;16.34;52.28;101279.13;2044838;28;20059;-73
2022/12/12 01:03:17;;;;;;;0.00;0.00;;;;;;;16.33;52.03;101272.88;2052412;28;20443;-74
2022/12/12 01:04:20;;;;;;;0.00;0.00;;;;;;;16.34;52.30;101279.13;2045176;28;20081;-74
2022/12/12 01:05:22;;;;;;;0.00;0.00;;;;;;;16.34;52.21;101282.63;2045469;28;20530;-74
2022/12/12 01:06:26;;;;;;;0.00;0.00;;;;;;;16.33;52.01;101272.88;2050202;28;20046;-73
2022/12/12 01:07:28;;;;;;;0.00;0.00;;;;;;;16.33;52.12;101283.78;2043082;28;20047;-74
2022/12/12 01:08:31;;;;;;;0.00;0.00;;;;;;;16.32;52.09;101276.75;2044826;28;20073;-74
2022/12/12 01:09:36;;;;;;;0.00;0.00;;;;;;;16.34;52.03;101284.56;2042957;28;20055;-74
2022/12/12 01:10:38;;;;;;;0.00;0.00;;;;;;;16.29;52.13;101277.50;2043770;28;21409;-73
2022/12/12 01:11:41;;;;;;;0.00;0.00;;;;;;;16.34;52.07;101281.84;2052157;28;20082;-73
2022/12/12 01:12:43;;;;;;;0.00;0.00;;;;;;;16.32;51.99;101282.22;2051734;28;20043;-74
2022/12/12 01:13:47;;;;;;;0.00;0.00;;;;;;;16.32;52.32;101276.75;2047773;28;20473;-74
2022/12/12 01:14:49;;;;;;;0.00;0.00;;;;;;;16.32;52.11;101282.22;2051226;28;20059;-74
2022/12/12 01:15:52;;;;;;;0.00;0.00;;;;;;;16.26;52.17;101275.50;2051174;28;20058;-74
2022/12/12 01:16:54;;;;;;;0.00;0.00;;;;;;;16.32;51.93;101282.22;2049601;28;20055;-74
2022/12/12 01:17:57;;;;;;;0.00;0.00;;;;;;;16.31;52.04;101286.09;2050961;28;20051;-74
2022/12/12 01:19:01;;;;;;;0.00;0.00;;;;;;;16.31;52.16;101283.38;2049016;28;20065;-74
2022/12/12 01:20:04;;;;;;;0.00;0.00;;;;;;;16.32;52.17;101281.41;2051863;28;20062;-74
2022/12/12 01:21:09;;;;;;;0.00;0.00;;;;;;;16.32;52.13;101287.66;2051216;28;20071;-75
2022/12/12 01:22:11;;;;;;;0.00;0.00;;;;;;;16.30;52.08;101281.78;2053076;28;20061;-74
2022/12/12 01:23:14;;;;;;;0.00;0.00;;;;;;;16.28;52.06;101278.63;2050718;28;20597;-74
2022/12/12 01:24:16;;;;;;;0.00;0.00;;;;;;;16.30;52.08;101287.22;2041866;28;20063;-74
2022/12/12 01:25:21;;;;;;;0.00;0.00;;;;;;;16.32;52.00;101286.84;2036658;28;20063;-74
2022/12/12 01:26:25;;;;;;;0.00;0.00;;;;;;;16.30;51.64;101283.72;2045292;28;20058;-74
2022/12/12 01:27:27;;;;;;;0.00;0.00;;;;;;;16.30;52.13;101279.06;2051030;28;20609;-75
2022/12/12 01:28:29;;;;;;;0.00;0.00;;;;;;;16.30;52.22;101281.78;2057892;28;20057;-75
2022/12/12 01:29:32;;;;;;;0.00;0.00;;;;;;;16.31;52.00;101283.38;2058252;28;20529;-75
2022/12/12 01:30:36;;;;;;;0.00;0.00;;;;;;;16.27;52.14;101279.78;2051850;28;20051;-75
2022/12/12 01:31:39;;;;;;;0.00;0.00;;;;;;;16.29;52.13;101280.22;2045303;28;20062;-76
2022/12/12 01:32:41;;;;;;;0.00;0.00;;;;;;;16.29;52.05;101282.16;2043048;28;20109;-75
2022/12/12 01:33:44;;;;;;;0.00;0.00;;;;;;;16.30;52.29;101289.97;2051570;28;20047;-75
2022/12/12 01:34:47;;;;;;;0.00;0.00;;;;;;;16.29;52.19;101284.88;2041731;28;20092;-73
2022/12/12 01:35:50;;;;;;;0.00;0.00;;;;;;;16.28;52.06;101284.06;2050991;28;20043;-73
2022/12/12 01:36:52;;;;;;;0.00;0.00;;;;;;;16.28;52.10;101286.81;2050321;28;20533;-74
2022/12/12 01:37:55;;;;;;;0.00;0.00;;;;;;;16.28;52.05;101292.25;2050239;28;20046;-75
2022/12/12 01:38:59;;;;;;;0.00;0.00;;;;;;;16.27;52.06;101284.44;2051876;28;20506;-74
2022/12/12 01:40:02;;;;;;;0.00;0.00;;;;;;;16.27;52.11;101282.53;2050803;28;20443;-75
2022/12/12 01:41:05;;;;;;;0.00;0.00;;;;;;;16.27;52.06;101279.00;2058184;28;20053;-75
2022/12/12 01:42:12;;;;;;;0.00;0.00;;;;;;;16.28;51.98;101286.03;2057838;28;20517;-75
2022/12/12 01:43:16;;;;;;;0.00;0.00;;;;;;;16.26;52.43;101283.69;2049605;28;20059;-75
2022/12/12 01:44:42;;;;;;;0.00;0.00;;;;;;;16.17;52.03;101285.88;2059042;28;20050;-74
2022/12/12 01:46:22;;;;;;;0.00;0.00;;;;;;;16.13;52.23;101281.53;2054044;28;20146;-73
2022/12/12 01:47:25;;;;;;;0.00;0.00;;;;;;;16.18;52.35;101287.47;2046562;28;20107;-74
2022/12/12 01:48:33;;;;;;;0.00;0.00;;;;;;;16.20;52.13;101279.72;2042848;28;20066;-74
2022/12/12 01:49:36;;;;;;;0.00;0.00;;;;;;;16.19;52.38;101282.78;2051151;28;20999;-75
2022/12/12 01:50:39;;;;;;;0.00;0.00;;;;;;;16.21;52.08;101285.94;2050044;28;20083;-74
2022/12/12 01:51:44;;;;;;;0.00;0.00;;;;;;;16.19;52.44;101280.84;2050408;28;20066;-74
2022/12/12 01:52:49;;;;;;;0.00;0.00;;;;;;;16.21;52.35;101292.16;2052074;28;20632;-73
2022/12/12 01:53:56;;;;;;;0.00;0.00;;;;;;;16.18;52.07;101287.47;2051232;28;20066;-74
2022/12/12 01:55:02;;;;;;;0.00;0.00;;;;;;;16.18;52.33;101292.91;2050398;28;20309;-75
2022/12/12 01:56:11;;;;;;;0.00;0.00;;;;;;;16.20;52.33;101295.25;2049008;28;20051;-75
2022/12/12 01:57:20;;;;;;;0.00;0.00;;;;;;;16.19;52.24;101299.91;2050935;28;20161;-75
2022/12/12 01:58:23;;;;;;;0.00;0.00;;;;;;;16.19;52.19;101290.94;2039082;28;20637;-75
2022/12/12 01:59:27;;;;;;;0.00;0.00;;;;;;;16.19;52.16;101302.63;2033966;28;20056;-75
2022/12/12 02:00:29;;;;;;;0.00;0.00;;;;;;;16.18;52.29;101298.34;2041740;28;20056;-75
2022/12/12 02:01:33;;;;;;;0.00;0.00;;;;;;;16.19;52.28;101299.91;2048484;28;20059;-76
2022/12/12 02:02:38;;;;;;;0.00;0.00;;;;;;;16.19;52.12;101302.63;2057091;28;20050;-75
2022/12/12 02:03:41;;;;;;;0.00;0.00;;;;;;;16.18;52.19;101303.81;2055910;28;20426;-75
2022/12/12 02:04:44;;;;;;;0.00;0.00;;;;;;;16.19;52.34;101305.38;2050002;28;20051;-75
2022/12/12 02:05:50;;;;;;;0.00;0.00;;;;;;;16.19;52.33;101310.81;2049262;28;20975;-75
2022/12/12 02:06:55;;;;;;;0.00;0.00;;;;;;;16.18;52.29;101309.25;2048509;28;20479;-75
2022/12/12 02:07:58;;;;;;;0.00;0.00;;;;;;;16.18;52.01;101305.72;2049995;28;20325;-75
2022/12/12 02:09:06;;;;;;;0.00;0.00;;;;;;;16.18;52.39;101305.72;2051674;28;20055;-77
2022/12/12 02:10:09;;;;;;;0.00;0.00;;;;;;;16.16;52.49;101300.66;2051643;28;20059;-76
2022/12/12 02:11:12;;;;;;;0.00;0.00;;;;;;;16.18;52.20;101303.00;2049449;28;20066;-74
2022/12/12 02:12:15;;;;;;;0.00;0.00;;;;;;;16.16;52.37;101300.66;2042782;28;20059;-75
2022/12/12 02:13:21;;;;;;;0.00;0.00;;;;;;;16.18;52.54;101305.72;2040679;29;20531;-75
2022/12/12 02:14:28;;;;;;;0.00;0.00;;;;;;;16.17;52.38;101302.22;2050446;28;20518;-75
2022/12/12 02:15:39;;;;;;;0.00;0.00;;;;;;;16.15;52.39;101304.53;2055146;28;20112;-75
2022/12/12 02:17:18;;;;;;;0.00;0.00;;;;;;;16.08;52.46;101304.41;2050184;28;20606;-75
2022/12/12 02:18:26;;;;;;;0.00;0.00;;;;;;;16.11;52.28;101300.19;2053263;28;20050;-76
2022/12/12 02:19:55;;;;;;;0.00;0.00;;;;;;;16.05;52.40;101304.34;2049327;28;20062;-75
2022/12/12 02:21:08;;;;;;;0.00;0.00;;;;;;;16.06;52.71;101303.22;2053454;28;20113;-75
2022/12/12 02:22:22;;;;;;;0.00;0.00;;;;;;;16.03;52.30;101288.38;2049875;28;20549;-75
2022/12/12 02:23:48;;;;;;;0.00;0.00;;;;;;;16.05;52.53;101296.97;2050868;28;20046;-75
2022/12/12 02:25:06;;;;;;;0.00;0.00;;;;;;;16.03;52.46;101302.00;2052986;28;20642;-73
2022/12/12 02:26:44;;;;;;;0.00;0.00;;;;;;;16.00;52.45;101308.19;2049236;28;20055;-74
2022/12/12 02:28:20;;;;;;;0.00;0.00;;;;;;;15.95;52.80;101303.03;2054002;28;20042;-75
2022/12/12 02:29:53;;;;;;;0.00;0.00;;;;;;;15.94;52.63;101301.47;2054001;28;20070;-74
2022/12/12 02:31:13;;;;;;;0.00;0.00;;;;;;;15.94;52.91;101304.19;2053206;28;20128;-74
2022/12/12 02:32:26;;;;;;;0.00;0.00;;;;;;;15.99;52.42;101309.34;2051958;28;20054;-74
2022/12/12 02:33:37;;;;;;;0.00;0.00;;;;;;;15.99;52.57;101306.63;2052743;28;20892;-74
2022/12/12 02:34:49;;;;;;;0.00;0.00;;;;;;;15.99;52.57;101308.53;2045191;28;20762;-74
2022/12/12 02:36:06;;;;;;;0.00;0.00;;;;;;;15.98;52.43;101304.25;2046856;28;20134;-73
2022/12/12 02:37:16;;;;;;;0.00;0.00;;;;;;;16.00;52.60;101308.19;2060012;28;20069;-73
2022/12/12 02:38:28;;;;;;;0.00;0.00;;;;;;;16.01;52.47;101309.78;2059239;28;20054;-74
2022/12/12 02:39:35;;;;;;;0.00;0.00;;;;;;;16.02;52.64;101313.25;2053770;28;20651;-73
2022/12/12 02:40:46;;;;;;;0.00;0.00;;;;;;;16.01;52.47;101307.03;2053139;28;20054;-74
2022/12/12 02:41:54;;;;;;;0.00;0.00;;;;;;;16.02;52.31;101314.06;2043918;28;20439;-74
2022/12/12 02:43:03;;;;;;;0.00;0.00;;;;;;;16.02;52.47;101316.78;2036586;28;20742;-74
2022/12/12 02:44:15;;;;;;;0.00;0.00;;;;;;;15.98;52.82;101309.72;2058801;28;20050;-74
2022/12/12 02:45:22;;;;;;;0.00;0.00;;;;;;;16.00;52.72;101310.09;2051413;28;20057;-74
2022/12/12 02:46:32;;;;;;;0.00;0.00;;;;;;;16.00;52.56;101319.06;2053303;28;20054;-74
2022/12/12 02:47:39;;;;;;;0.00;0.00;;;;;;;15.99;52.63;101311.28;2050943;28;20529;-75
2022/12/12 02:48:49;;;;;;;0.00;0.00;;;;;;;16.00;52.61;101318.28;2053518;28;20411;-75
2022/12/12 02:49:56;;;;;;;0.00;0.00;;;;;;;16.00;52.65;101318.28;2058020;28;20194;-74
2022/12/12 02:51:02;;;;;;;0.00;0.00;;;;;;;16.00;52.57;101313.63;2058275;28;20518;-74
2022/12/12 02:52:05;;;;;;;0.00;0.00;;;;;;;16.01;52.50;101314.44;2049836;28;20599;-74
2022/12/12 02:53:08;;;;;;;0.00;0.00;;;;;;;16.00;52.54;101313.63;2051194;28;20059;-74
2022/12/12 02:54:15;;;;;;;0.00;0.00;;;;;;;16.01;52.44;101308.97;2057218;28;20065;-74
2022/12/12 02:55:19;;;;;;;0.00;0.00;;;;;;;16.02;52.45;101307.81;2057408;28;20046;-75
2022/12/12 02:56:47;;;;;;;0.00;0.00;;;;;;;15.95;52.47;101305.00;2049632;28;20059;-74
2022/12/12 02:57:52;;;;;;;0.00;0.00;;;;;;;15.99;52.71;101311.28;2058572;28;20919;-74
2022/12/12 02:58:54;;;;;;;0.00;0.00;;;;;;;16.00;52.94;101313.63;2039877;28;20507;-74
2022/12/12 03:00:00;;;;;;;0.00;0.00;;;;;;;16.02;52.49;101300.44;2042435;28;20553;-74
2022/12/12 03:01:15;;;;;;;0.00;0.00;;;;;;;15.99;52.52;101314.78;2047887;28;20063;-74
2022/12/12 03:02:45;;;;;;;0.00;0.00;;;;;;;15.96;52.55;101307.34;2059382;28;20054;-74
2022/12/12 03:08:56;;;;;;;0.00;0.00;;;;;;;15.90;52.86;101308.78;2054314;28;20062;-74
2022/12/12 03:10:03;;;;;;;0.00;0.00;;;;;;;15.92;52.76;101305.72;2053061;28;20055;-74
2022/12/12 03:11:08;;;;;;;0.00;0.00;;;;;;;15.90;52.59;101303.34;2051738;28;20118;-74
2022/12/12 03:12:16;;;;;;;0.00;0.00;;;;;;;15.94;52.57;101315.09;2050690;28;20062;-74
2022/12/12 03:13:30;;;;;;;0.00;0.00;;;;;;;15.94;52.82;101320.53;2050044;28;20467;-74
2022/12/12 03:14:41;;;;;;;0.00;0.00;;;;;;;15.93;52.64;101313.53;2045393;28;20055;-75
2022/12/12 03:15:56;;;;;;;0.00;0.00;;;;;;;15.93;52.68;101318.19;2053787;28;21821;-74
2022/12/12 03:17:04;;;;;;;0.00;0.00;;;;;;;15.93;52.82;101316.25;2059303;28;20538;-74
2022/12/12 03:18:18;;;;;;;0.00;0.00;;;;;;;15.93;52.64;101318.97;2050843;28;20529;-74
2022/12/12 03:19:29;;;;;;;0.00;0.00;;;;;;;15.93;52.71;101323.63;2052767;28;20066;-74
2022/12/12 03:20:38;;;;;;;0.00;0.00;;;;;;;15.91;52.78;101318.53;2059200;28;20845;-74
2022/12/12 03:21:49;;;;;;;0.00;0.00;;;;;;;15.92;52.79;101316.63;2056802;28;20297;-74
2022/12/12 03:22:55;;;;;;;0.00;0.00;;;;;;;15.93;52.75;101324.41;2051254;28;20058;-73
2022/12/12 03:24:03;;;;;;;0.00;0.00;;;;;;;15.93;52.97;101329.88;2050211;28;20097;-73
2022/12/12 03:25:12;;;;;;;0.00;0.00;;;;;;;15.93;52.67;101323.63;2052497;28;20063;-74
2022/12/12 03:26:21;;;;;;;0.00;0.00;;;;;;;15.93;52.73;101321.69;2051579;28;20105;-74
2022/12/12 03:27:29;;;;;;;0.00;0.00;;;;;;;15.93;52.55;101318.97;2043960;28;20062;-74
2022/12/12 03:28:36;;;;;;;0.00;0.00;;;;;;;15.95;52.80;101321.34;2050758;28;20050;-74
2022/12/12 03:29:46;;;;;;;0.00;0.00;;;;;;;15.94;52.75;101320.53;2041247;28;20435;-74
2022/12/12 03:30:54;;;;;;;0.00;0.00;;;;;;;15.91;52.63;101310.38;2042630;28;20047;-75
2022/12/12 03:32:03;;;;;;;0.00;0.00;;;;;;;15.92;52.64;101316.63;2053322;28;20046;-72
2022/12/12 03:33:14;;;;;;;0.00;0.00;;;;;;;15.92;52.62;101311.94;2052030;28;20050;-74
2022/12/12 03:34:22;;;;;;;0.00;0.00;;;;;;;15.90;52.58;101314.22;2051878;28;20088;-74
2022/12/12 03:35:29;;;;;;;0.00;0.00;;;;;;;15.94;52.60;101320.53;2051165;28;20071;-74
2022/12/12 03:36:36;;;;;;;0.00;0.00;;;;;;;15.95;52.38;101324.06;2052125;28;20066;-74
2022/12/12 03:37:46;;;;;;;0.00;0.00;;;;;;;15.93;52.47;101318.97;2043693;28;20426;-75
2022/12/12 03:38:56;;;;;;;0.00;0.00;;;;;;;15.92;52.81;101313.91;2045448;28;20060;-73
2022/12/12 03:40:03;;;;;;;0.00;0.00;;;;;;;15.91;52.48;101321.28;2055790;28;20604;-73
2022/12/12 03:41:10;;;;;;;0.00;0.00;;;;;;;15.92;52.56;101320.09;2056819;28;20489;-73
2022/12/12 03:42:19;;;;;;;0.00;0.00;;;;;;;15.94;52.66;101325.19;2049652;28;20065;-74
2022/12/12 03:43:25;;;;;;;0.00;0.00;;;;;;;15.94;52.54;101327.91;2050826;28;21134;-74
2022/12/12 03:44:34;;;;;;;0.00;0.00;;;;;;;15.93;52.65;101324.41;2042722;28;20051;-74
2022/12/12 03:45:48;;;;;;;0.00;0.00;;;;;;;15.92;52.64;101328.28;2044352;28;20134;-73
2022/12/12 03:46:54;;;;;;;0.00;0.00;;;;;;;15.93;53.00;101323.63;2049620;28;20077;-73
2022/12/12 03:48:03;;;;;;;0.00;0.00;;;;;;;15.93;52.94;101320.91;2049577;28;20059;-74
2022/12/12 03:49:11;;;;;;;0.00;0.00;;;;;;;15.92;52.69;101328.28;2050230;28;20102;-75
2022/12/12 03:50:19;;;;;;;0.00;0.00;;;;;;;15.92;52.78;101322.06;2042315;28;20047;-74
2022/12/12 03:51:26;;;;;;;0.00;0.00;;;;;;;15.91;52.74;101321.28;2044012;28;20079;-73
2022/12/12 03:52:33;;;;;;;0.00;0.00;;;;;;;15.92;52.52;101322.84;2049765;28;20530;-75
2022/12/12 03:53:41;;;;;;;0.00;0.00;;;;;;;15.90;52.60;101322.41;2048883;28;20060;-73
2022/12/12 03:54:49;;;;;;;0.00;0.00;;;;;;;15.88;52.49;101322.00;2056163;28;20061;-74
2022/12/12 03:55:56;;;;;;;0.00;0.00;;;;;;;15.90;52.58;101322.41;2052141;28;20112;-75
2022/12/12 03:57:02;;;;;;;0.00;0.00;;;;;;;15.92;52.64;101327.50;2043482;28;20055;-75
2022/12/12 03:58:11;;;;;;;0.00;0.00;;;;;;;15.92;52.53;101324.78;2041144;28;20606;-74
2022/12/12 03:59:18;;;;;;;0.00;0.00;;;;;;;15.91;52.77;101324.00;2048788;28;20050;-74
2022/12/12 04:00:32;;;;;;;0.00;0.00;;;;;;;15.92;52.58;101332.97;2042941;28;20051;-74
2022/12/12 04:01:41;;;;;;;0.00;0.00;;;;;;;15.91;52.75;101326.72;2042031;28;20047;-75
2022/12/12 04:02:50;;;;;;;0.00;0.00;;;;;;;15.90;52.70;101327.84;2048760;28;20058;-75
2022/12/12 04:03:58;;;;;;;0.00;0.00;;;;;;;15.89;52.73;101331.72;2049681;28;20822;-75
2022/12/12 04:05:13;;;;;;;0.00;0.00;;;;;;;15.89;52.60;101334.47;2051003;28;20505;-75
2022/12/12 04:06:27;;;;;;;0.00;0.00;;;;;;;15.88;52.61;101332.88;2050415;28;20065;-75
2022/12/12 04:07:36;;;;;;;0.00;0.00;;;;;;;15.89;52.63;101336.38;2050831;28;20069;-74
2022/12/12 04:08:38;;;;;;;0.00;0.00;;;;;;;15.88;52.83;101327.44;2050576;28;20426;-74
2022/12/12 04:14:04;;;;;;;0.00;0.00;;;;;;;15.78;52.67;101338.94;2054090;28;20054;-75
2022/12/12 04:15:47;;;;;;;0.00;0.00;;;;;;;15.73;52.77;101339.22;2051545;28;20330;-75
2022/12/12 04:16:51;;;;;;;0.00;0.00;;;;;;;15.79;52.70;101339.72;2057861;28;20060;-75
2022/12/12 04:18:02;;;;;;;0.00;0.00;;;;;;;15.81;52.69;101346.38;2055121;28;20165;-75
2022/12/12 04:19:10;;;;;;;0.00;0.00;;;;;;;15.82;52.70;101344.44;2048834;28;20659;-75
2022/12/12 04:23:17;;;;;;;0.00;0.00;;;;;;;15.79;52.88;101345.94;2051119;28;20533;-74
2022/12/12 04:24:28;;;;;;;0.00;0.00;;;;;;;15.80;52.70;101347.53;2049018;28;20126;-74
2022/12/12 04:26:37;;;;;;;0.00;0.00;;;;;;;15.82;52.88;101345.25;2051489;28;20055;-74
2022/12/12 04:27:02;;;;;;;0.00;0.00;;;;;;;15.79;52.90;101358.78;2052100;28;20066;-74
2022/12/12 04:28:06;;;;;;;0.00;0.00;;;;;;;15.82;52.68;101356.13;2049519;28;20062;-75
2022/12/12 04:29:18;;;;;;;0.00;0.00;;;;;;;15.82;52.64;101356.13;2048439;28;20055;-75
2022/12/12 04:30:20;;;;;;;0.00;0.00;;;;;;;15.82;52.71;101361.59;2049958;28;20928;-75
2022/12/12 04:31:27;;;;;;;0.00;0.00;;;;;;;15.84;52.84;101361.97;2047533;28;20475;-75
2022/12/12 04:32:34;;;;;;;0.00;0.00;;;;;;;15.85;52.63;101354.59;2048624;28;20082;-75
2022/12/12 04:33:43;;;;;;;0.00;0.00;;;;;;;15.85;52.61;101358.13;2056266;28;20577;-75
2022/12/12 04:34:51;;;;;;;0.00;0.00;;;;;;;15.85;52.75;101360.06;2041633;28;20527;-74
2022/12/12 04:35:57;;;;;;;0.00;0.00;;;;;;;15.83;52.70;101352.25;2044601;28;20054;-75
2022/12/12 04:37:01;;;;;;;0.00;0.00;;;;;;;15.84;52.72;101359.25;2047123;28;20557;-75
2022/12/12 04:38:05;;;;;;;0.00;0.00;;;;;;;15.85;52.64;101349.97;2056394;28;20065;-75
2022/12/12 04:39:10;;;;;;;0.00;0.00;;;;;;;15.83;53.17;101346.81;2055897;28;20551;-75
2022/12/12 04:40:18;;;;;;;0.00;0.00;;;;;;;15.86;52.82;101354.25;2050304;28;20554;-74
2022/12/12 04:41:22;;;;;;;0.00;0.00;;;;;;;15.86;52.60;101351.53;2048428;28;20129;-74
2022/12/12 04:42:31;;;;;;;0.00;0.00;;;;;;;15.85;52.63;101352.69;2042705;28;20134;-75
2022/12/12 04:43:36;;;;;;;0.00;0.00;;;;;;;15.84;52.68;101353.06;2050250;28;20055;-75
2022/12/12 04:44:41;;;;;;;0.00;0.00;;;;;;;15.85;52.78;101349.97;2055357;28;20453;-74
2022/12/12 04:45:49;;;;;;;0.00;0.00;;;;;;;15.82;52.64;101345.25;2056211;28;20054;-76
2022/12/12 04:46:54;;;;;;;0.00;0.00;;;;;;;15.85;52.72;101355.41;2048850;28;20563;-75
2022/12/12 04:47:58;;;;;;;0.00;0.00;;;;;;;15.86;52.64;101361.63;2048946;28;20065;-75
2022/12/12 04:49:04;;;;;;;0.00;0.00;;;;;;;15.84;52.57;101351.09;2050973;28;20055;-75
2022/12/12 04:50:08;;;;;;;0.00;0.00;;;;;;;15.85;52.85;101355.41;2050199;28;20059;-75
2022/12/12 04:51:16;;;;;;;0.00;0.00;;;;;;;15.85;52.51;101357.34;2049240;28;20061;-75
2022/12/12 04:52:22;;;;;;;0.00;0.00;;;;;;;15.86;52.71;101356.97;2049454;28;20759;-75
2022/12/12 04:53:30;;;;;;;0.00;0.00;;;;;;;15.85;52.83;101360.84;2048941;28;20074;-75
2022/12/12 04:54:41;;;;;;;0.00;0.00;;;;;;;15.84;52.67;101358.50;2050334;28;20059;-74
2022/12/12 04:55:47;;;;;;;0.00;0.00;;;;;;;15.85;52.72;101368.22;2050467;28;20054;-75
2022/12/12 04:56:54;;;;;;;0.00;0.00;;;;;;;15.85;52.54;101357.34;2049071;28;20058;-74
2022/12/12 04:57:56;;;;;;;0.00;0.00;;;;;;;15.84;52.66;101364.72;2055523;28;20762;-75
2022/12/12 04:58:59;;;;;;;0.00;0.00;;;;;;;15.86;52.63;101364.34;2054911;28;20054;-75
2022/12/12 05:00:01;;;;;;;0.00;0.00;;;;;;;15.86;52.64;101361.63;2054664;28;20714;-75
2022/12/12 05:01:09;;;;;;;0.00;0.00;;;;;;;15.86;52.58;101367.88;2053199;28;20054;-74
2022/12/12 05:02:19;;;;;;;0.00;0.00;;;;;;;15.84;52.72;101364.72;2048182;28;20054;-75
2022/12/12 05:03:29;;;;;;;0.00;0.00;;;;;;;15.81;52.44;101353.78;2049518;28;20428;-75
2022/12/12 05:04:38;;;;;;;0.00;0.00;;;;;;;15.84;52.79;101361.22;2049862;28;20542;-74
2022/12/12 05:05:47;;;;;;;0.00;0.00;;;;;;;15.84;52.75;101361.97;2057329;28;20062;-74
2022/12/12 05:06:55;;;;;;;0.00;0.00;;;;;;;15.79;52.52;101356.84;2055610;28;20058;-74
2022/12/12 05:08:06;;;;;;;0.00;0.00;;;;;;;15.83;52.68;101363.16;2048221;28;20604;-74
2022/12/12 05:09:10;;;;;;;0.00;0.00;;;;;;;15.83;52.76;101357.69;2048927;28;20062;-75
2022/12/12 05:10:15;;;;;;;0.00;0.00;;;;;;;15.85;52.70;101354.59;2042355;28;20522;-74
2022/12/12 05:11:17;;;;;;;0.00;0.00;;;;;;;15.84;52.62;101359.25;2048983;28;20144;-76
2022/12/12 05:12:23;;;;;;;0.00;0.00;;;;;;;15.83;52.57;101356.91;2048397;28;20574;-73
2022/12/12 05:13:28;;;;;;;0.00;0.00;;;;;;;15.83;52.47;101357.69;2040849;28;20059;-75
2022/12/12 05:14:31;;;;;;;0.00;0.00;;;;;;;15.85;52.66;101368.22;2041517;28;20059;-75
2022/12/12 05:15:33;;;;;;;0.00;0.00;;;;;;;15.85;52.57;101355.41;2050013;28;20663;-75
2022/12/12 05:16:40;;;;;;;0.00;0.00;;;;;;;15.86;52.56;101365.13;2048889;28;20453;-75
2022/12/12 05:17:45;;;;;;;0.00;0.00;;;;;;;15.85;52.47;101355.41;2048617;28;20614;-75
2022/12/12 05:18:48;;;;;;;0.00;0.00;;;;;;;15.84;52.63;101351.09;2049893;28;20058;-75
2022/12/12 05:19:50;;;;;;;0.00;0.00;;;;;;;15.83;52.42;101341.38;2042753;28;20086;-75
2022/12/12 05:20:54;;;;;;;0.00;0.00;;;;;;;15.85;52.65;101346.44;2042112;28;20648;-75
2022/12/12 05:21:58;;;;;;;0.00;0.00;;;;;;;15.85;52.46;101349.97;2051654;28;20212;-76
2022/12/12 05:23:00;;;;;;;0.00;0.00;;;;;;;15.84;52.56;101347.59;2048581;28;20419;-75